Time;durP1;ratioP1;P1;durP2;ratioP2;P2;SDS_P1;SDS_P2;PMS_P1;PMS_P2;Temp;Humidity;BMP_temperature;BMP_pressure;BME280_temperature;BME280_humidity;BME280_pressure;Samples;Min_cycle;Max_cycle;Signal;HPM_P1;HPM_P2
2024/01/02 00:01:26;;;;;;;;;;;23.60;53.30;;;;;;221138;1266;24261;-53
2024/01/02 00:06:31;;;;;;;;;;;23.40;53.30;;;;;;221321;1271;24231;-52
2024/01/02 00:11:36;;;;;;;;;;;23.50;53.90;;;;;;221201;1264;24384;-53
2024/01/02 00:16:40;;;;;;;;;;;23.60;52.90;;;;;;221125;1267;24243;-55
2024/01/02 00:21:45;;;;;;;;;;;23.60;52.80;;;;;;221148;1250;23178;-57
2024/01/02 00:26:49;;;;;;;;;;;23.40;53.10;;;;;;221486;1257;22491;-57
2024/01/02 00:31:53;;;;;;;;;;;23.50;53.00;;;;;;221421;1268;22522;-57
2024/01/02 00:36:58;;;;;;;;;;;23.70;53.00;;;;;;221918;1266;24192;-57
2024/01/02 00:42:02;;;;;;;;;;;24.00;52.70;;;;;;221672;1270;22613;-56
2024/01/02 00:47:10;;;;;;;;;;;24.10;52.40;;;;;;221632;1270;23905;-56
2024/01/02 00:52:15;;;;;;;;;;;24.30;51.70;;;;;;221874;1265;22492;-57
2024/01/02 00:57:19;;;;;;;;;;;24.30;51.60;;;;;;221695;1267;24263;-57
2024/01/02 01:02:23;;;;;;;;;;;24.20;51.80;;;;;;221704;1270;24225;-55
2024/01/02 01:07:28;;;;;;;;;;;24.00;52.10;;;;;;221893;1267;23048;-55
2024/01/02 01:12:32;;;;;;;;;;;23.90;52.60;;;;;;221157;1266;22511;-56
2024/01/02 01:17:37;;;;;;;;;;;23.90;52.90;;;;;;220590;1275;24398;-56
2024/01/02 01:22:42;;;;;;;;;;;23.90;52.30;;;;;;220640;1273;23570;-55
2024/01/02 01:27:46;;;;;;;;;;;23.90;52.20;;;;;;220425;1270;24257;-57
2024/01/02 01:32:51;;;;;;;;;;;23.90;52.10;;;;;;221527;1266;24179;-55
2024/01/02 01:37:56;;;;;;;;;;;23.80;52.30;;;;;;222450;1263;24192;-55
2024/01/02 01:43:00;;;;;;;;;;;23.80;52.30;;;;;;221798;1269;22524;-56
2024/01/02 01:48:07;;;;;;;;;;;23.70;52.40;;;;;;221619;1264;22500;-55
2024/01/02 01:53:12;;;;;;;;;;;23.60;52.60;;;;;;221975;1263;22511;-56
2024/01/02 01:58:17;;;;;;;;;;;23.60;52.90;;;;;;221755;1270;23866;-57
2024/01/02 02:03:22;;;;;;;;;;;23.40;52.90;;;;;;221958;1266;25476;-56
2024/01/02 02:08:26;;;;;;;;;;;23.40;53.10;;;;;;222155;1267;24257;-56
2024/01/02 02:13:35;;;;;;;;;;;23.30;53.10;;;;;;221862;1264;25327;-56
2024/01/02 02:18:39;;;;;;;;;;;23.50;52.90;;;;;;222095;1267;25185;-57
2024/01/02 02:23:43;;;;;;;;;;;23.80;52.40;;;;;;222007;1264;24389;-57
2024/01/02 02:28:48;;;;;;;;;;;24.00;51.90;;;;;;222005;1267;22705;-58
2024/01/02 02:33:52;;;;;;;;;;;24.20;51.90;;;;;;221912;1263;22492;-56
2024/01/02 02:38:56;;;;;;;;;;;24.20;51.40;;;;;;221937;1257;25444;-56
2024/01/02 02:44:01;;;;;;;;;;;24.10;51.60;;;;;;221868;1263;22490;-56
2024/01/02 02:49:06;;;;;;;;;;;23.90;52.30;;;;;;222098;1265;22485;-57
2024/01/02 02:54:11;;;;;;;;;;;23.90;51.90;;;;;;221603;1269;22491;-56
2024/01/02 02:59:15;;;;;;;;;;;23.90;52.00;;;;;;222043;1266;23044;-54
2024/01/02 03:04:21;;;;;;;;;;;24.00;51.80;;;;;;222112;1269;22478;-54
2024/01/02 03:09:26;;;;;;;;;;;23.90;51.90;;;;;;221946;1267;22488;-54
2024/01/02 03:14:30;;;;;;;;;;;23.80;51.90;;;;;;221764;1265;25266;-55
2024/01/02 03:19:35;;;;;;;;;;;23.70;52.20;;;;;;221517;1263;22500;-56
2024/01/02 03:24:39;;;;;;;;;;;23.60;52.10;;;;;;221673;1265;26248;-55
2024/01/02 03:29:44;;;;;;;;;;;23.60;52.30;;;;;;221637;1268;25918;-56
2024/01/02 03:34:50;;;;;;;;;;;23.60;52.50;;;;;;229195;1268;22508;-56
2024/01/02 03:39:56;;;;;;;;;;;23.60;52.30;;;;;;221511;1269;25196;-54
2024/01/02 03:44:59;;;;;;;;;;;23.60;52.20;;;;;;221951;1262;22797;-56
2024/01/02 03:50:05;;;;;;;;;;;23.60;52.40;;;;;;221696;1268;22495;-56
2024/01/02 03:55:10;;;;;;;;;;;23.90;51.80;;;;;;221766;1268;24263;-57
2024/01/02 04:00:14;;;;;;;;;;;24.00;51.70;;;;;;221794;1256;27766;-58
2024/01/02 04:05:19;;;;;;;;;;;24.10;51.60;;;;;;221932;1261;22571;-56
2024/01/02 04:10:23;;;;;;;;;;;24.20;51.30;;;;;;221991;1271;24277;-58
2024/01/02 04:15:28;;;;;;;;;;;24.10;51.50;;;;;;221635;1268;24204;-56
2024/01/02 04:20:32;;;;;;;;;;;24.00;51.80;;;;;;221525;1263;22530;-57
2024/01/02 04:25:37;;;;;;;;;;;23.90;51.90;;;;;;221657;1268;24200;-57
2024/01/02 04:30:41;;;;;;;;;;;23.90;51.80;;;;;;221645;1271;24283;-56
2024/01/02 04:35:45;;;;;;;;;;;24.00;51.70;;;;;;221498;1269;22544;-54
2024/01/02 04:40:50;;;;;;;;;;;23.90;52.00;;;;;;222368;1272;22526;-54
2024/01/02 04:45:55;;;;;;;;;;;23.80;52.00;;;;;;221493;1266;24347;-55
2024/01/02 04:50:58;;;;;;;;;;;23.70;51.80;;;;;;221664;1267;25293;-56
2024/01/02 04:56:03;;;;;;;;;;;23.70;52.00;;;;;;221839;1265;23946;-57
2024/01/02 05:01:10;;;;;;;;;;;23.70;52.00;;;;;;221313;1268;22585;-57
2024/01/02 05:06:14;;;;;;;;;;;23.60;52.20;;;;;;221244;1265;23017;-56
2024/01/02 05:11:18;;;;;;;;;;;23.50;53.00;;;;;;221640;1262;25330;-56
2024/01/02 05:16:23;;;;;;;;;;;23.50;52.30;;;;;;221537;1270;24324;-57
2024/01/02 05:21:27;;;;;;;;;;;23.40;52.40;;;;;;222225;1267;27671;-58
2024/01/02 05:26:31;;;;;;;;;;;23.30;52.50;;;;;;221410;1267;24365;-60
2024/01/02 05:31:35;;;;;;;;;;;23.30;52.70;;;;;;221443;1269;24207;-57
2024/01/02 05:36:39;;;;;;;;;;;23.30;52.80;;;;;;221493;1264;25609;-58
2024/01/02 05:41:44;;;;;;;;;;;23.20;53.20;;;;;;221804;1264;24273;-56
2024/01/02 05:46:48;;;;;;;;;;;23.20;53.50;;;;;;221497;1263;22806;-55
2024/01/02 05:51:52;;;;;;;;;;;23.10;54.00;;;;;;223469;1269;22509;-54
2024/01/02 05:56:56;;;;;;;;;;;23.00;54.50;;;;;;221890;1271;24230;-54
2024/01/02 06:02:00;;;;;;;;;;;23.00;54.00;;;;;;221524;1264;26542;-53
2024/01/02 06:07:04;;;;;;;;;;;23.10;54.10;;;;;;221829;1264;24227;-50
2024/01/02 06:12:09;;;;;;;;;;;23.50;53.40;;;;;;221786;1270;22514;-50
2024/01/02 06:17:13;;;;;;;;;;;24.00;52.70;;;;;;222087;1263;22578;-47
2024/01/02 06:22:17;;;;;;;;;;;24.10;52.20;;;;;;221843;1264;25285;-52
2024/01/02 06:27:21;;;;;;;;;;;24.10;52.30;;;;;;221523;1263;624233;-52
2024/01/02 06:32:25;;;;;;;;;;;24.10;52.40;;;;;;221618;1269;24199;-51
2024/01/02 06:37:29;;;;;;;;;;;24.00;53.20;;;;;;221583;1270;22501;-54
2024/01/02 06:42:35;;;;;;;;;;;24.10;53.00;;;;;;221614;1269;25005;-56
2024/01/02 06:47:39;;;;;;;;;;;24.10;52.80;;;;;;221633;1260;22797;-55
2024/01/02 06:52:43;;;;;;;;;;;23.90;52.80;;;;;;227051;1267;24650;-49
2024/01/02 06:57:47;;;;;;;;;;;23.90;52.00;;;;;;226621;1268;22658;-51
2024/01/02 07:02:52;;;;;;;;;;;23.90;51.60;;;;;;226034;1269;22608;-54
2024/01/02 07:07:56;;;;;;;;;;;24.00;51.80;;;;;;222032;1270;22673;-50
2024/01/02 07:13:00;;;;;;;;;;;23.80;51.60;;;;;;221955;1267;22502;-49
2024/01/02 07:18:05;;;;;;;;;;;23.60;52.00;;;;;;221769;1264;23877;-51
2024/01/02 07:23:10;;;;;;;;;;;23.50;52.30;;;;;;221902;1264;22673;-49
2024/01/02 07:28:14;;;;;;;;;;;23.40;52.30;;;;;;221949;1271;22737;-53
2024/01/02 07:33:19;;;;;;;;;;;23.30;52.70;;;;;;221759;1263;22544;-52
2024/01/02 07:38:26;;;;;;;;;;;23.10;52.60;;;;;;222320;1270;22481;-52
2024/01/02 07:43:30;;;;;;;;;;;23.10;52.90;;;;;;221401;1269;25184;-51
2024/01/02 07:48:34;;;;;;;;;;;23.00;52.60;;;;;;220956;1275;22520;-52
2024/01/02 07:53:38;;;;;;;;;;;22.90;53.00;;;;;;221073;1275;24268;-49
2024/01/02 07:58:43;;;;;;;;;;;22.80;52.60;;;;;;220902;1272;22512;-52
2024/01/02 08:03:47;;;;;;;;;;;23.10;52.20;;;;;;220904;1271;24219;-53
2024/01/02 08:08:52;;;;;;;;;;;23.50;51.40;;;;;;221758;1269;25314;-47
2024/01/02 08:13:56;;;;;;;;;;;23.70;50.50;;;;;;221961;1267;24233;-51
2024/01/02 08:19:00;;;;;;;;;;;24.00;50.10;;;;;;221789;1269;24248;-50
2024/01/02 08:24:05;;;;;;;;;;;24.00;50.00;;;;;;221613;1270;22607;-52
2024/01/02 08:29:10;;;;;;;;;;;24.00;49.80;;;;;;221920;1269;24189;-48
2024/01/02 08:34:14;;;;;;;;;;;24.00;49.80;;;;;;221832;1247;23873;-51
2024/01/02 08:39:18;;;;;;;;;;;23.90;49.90;;;;;;223737;1270;24199;-49
2024/01/02 08:44:23;;;;;;;;;;;23.90;50.00;;;;;;222068;1270;25518;-52
2024/01/02 08:49:28;;;;;;;;;;;23.90;49.90;;;;;;222131;1269;22664;-52
2024/01/02 08:54:32;;;;;;;;;;;23.70;50.00;;;;;;221911;1270;23405;-52
2024/01/02 08:59:36;;;;;;;;;;;23.70;50.10;;;;;;222055;1269;22518;-52
2024/01/02 09:04:43;;;;;;;;;;;23.60;50.50;;;;;;222047;1265;24298;-52
2024/01/02 09:09:48;;;;;;;;;;;23.50;50.10;;;;;;221709;1265;25508;-51
2024/01/02 09:14:52;;;;;;;;;;;23.40;50.20;;;;;;222449;1270;25456;-53
2024/01/02 09:19:56;;;;;;;;;;;23.30;50.40;;;;;;221567;1263;25243;-49
2024/01/02 09:25:01;;;;;;;;;;;23.30;50.50;;;;;;222151;1264;25466;-50
2024/01/02 09:30:06;;;;;;;;;;;23.30;50.40;;;;;;221904;1267;22538;-52
2024/01/02 09:35:11;;;;;;;;;;;23.10;50.50;;;;;;222017;1270;26150;-49
2024/01/02 09:40:29;;;;;;;;;;;23.10;50.50;;;;;;221982;1263;22801;-51
2024/01/02 09:45:42;;;;;;;;;;;23.00;50.70;;;;;;222576;1255;25314;-53
2024/01/02 09:51:03;;;;;;;;;;;23.00;50.70;;;;;;222516;1269;25636;-52
2024/01/02 09:56:16;;;;;;;;;;;22.90;50.70;;;;;;222187;1270;22501;-52
2024/01/02 10:01:30;;;;;;;;;;;22.80;51.10;;;;;;222332;1269;22687;-50
2024/01/02 10:06:57;;;;;;;;;;;23.20;50.20;;;;;;221802;1264;22522;-51
2024/01/02 10:12:24;;;;;;;;;;;23.60;49.90;;;;;;222172;1271;24251;-49
2024/01/02 10:17:49;;;;;;;;;;;23.80;48.90;;;;;;221227;1279;22652;-52
2024/01/02 10:23:01;;;;;;;;;;;24.00;48.60;;;;;;220970;1275;24378;-51
2024/01/02 10:28:19;;;;;;;;;;;24.10;48.40;;;;;;220286;1276;25562;-51
2024/01/02 10:33:42;;;;;;;;;;;24.10;48.40;;;;;;221154;1278;22547;-51
2024/01/02 10:38:55;;;;;;;;;;;24.00;48.40;;;;;;220343;1278;25569;-54
2024/01/02 10:44:18;;;;;;;;;;;23.90;48.50;;;;;;220307;1272;22744;-54
2024/01/02 10:49:31;;;;;;;;;;;23.90;48.80;;;;;;220286;1278;25317;-51
2024/01/02 10:54:58;;;;;;;;;;;23.70;48.80;;;;;;221580;1263;24640;-49
2024/01/02 11:00:07;;;;;;;;;;;23.80;48.80;;;;;;221975;1264;25252;-52
2024/01/02 11:05:11;;;;;;;;;;;23.70;49.00;;;;;;221935;1267;22499;-51
2024/01/02 11:10:23;;;;;;;;;;;23.60;49.30;;;;;;220845;1276;22978;-49
2024/01/02 11:15:28;;;;;;;;;;;23.50;49.50;;;;;;221051;1269;25318;-51
2024/01/02 11:20:36;;;;;;;;;;;23.40;49.30;;;;;;221052;1275;22592;-51
2024/01/02 11:26:07;;;;;;;;;;;23.40;50.00;;;;;;221205;1270;25491;-52
2024/01/02 11:31:18;;;;;;;;;;;23.30;49.50;;;;;;221071;1266;24209;-47
2024/01/02 11:36:35;;;;;;;;;;;23.30;49.40;;;;;;220593;1277;26166;-49
2024/01/02 11:42:07;;;;;;;;;;;23.20;49.50;;;;;;221103;1276;22512;-50
2024/01/02 11:47:34;;;;;;;;;;;23.00;49.60;;;;;;220788;1266;22610;-50
2024/01/02 11:52:52;;;;;;;;;;;22.90;49.70;;;;;;220560;1274;25262;-51
2024/01/02 11:57:57;;;;;;;;;;;23.20;48.80;;;;;;221593;1276;25272;-51
2024/01/02 12:03:11;;;;;;;;;;;23.60;48.30;;;;;;220643;1276;22502;-50
2024/01/02 12:08:24;;;;;;;;;;;23.60;48.30;;;;;;223135;1266;24196;-51
2024/01/02 12:13:50;;;;;;;;;;;23.80;48.10;;;;;;221891;1270;23051;-51
2024/01/02 12:18:56;;;;;;;;;;;23.70;48.30;;;;;;221777;1270;24253;-49
2024/01/02 12:24:02;;;;;;;;;;;23.60;48.60;;;;;;221830;1270;22799;-52
2024/01/02 12:29:07;;;;;;;;;;;23.50;49.20;;;;;;222022;1269;22535;-50
2024/01/02 12:34:11;;;;;;;;;;;23.40;49.50;;;;;;222181;1267;24225;-51
2024/01/02 12:39:16;;;;;;;;;;;23.30;49.30;;;;;;221944;1270;22904;-51
2024/01/02 12:44:22;;;;;;;;;;;23.20;49.40;;;;;;221879;1270;25344;-50
2024/01/02 12:49:27;;;;;;;;;;;23.30;49.30;;;;;;222052;1270;22743;-49
2024/01/02 12:54:38;;;;;;;;;;;23.30;49.30;;;;;;222188;1270;25300;-50
2024/01/02 12:59:43;;;;;;;;;;;23.20;49.40;;;;;;221854;1267;23407;-50
2024/01/02 13:04:48;;;;;;;;;;;23.10;49.40;;;;;;222038;1267;23794;-48
2024/01/02 13:09:53;;;;;;;;;;;23.10;49.60;;;;;;221927;1264;22501;-49
2024/01/02 13:14:59;;;;;;;;;;;23.00;49.80;;;;;;222471;1265;22509;-50
2024/01/02 13:20:05;;;;;;;;;;;23.10;48.80;;;;;;222016;1257;22586;-50
2024/01/02 13:25:15;;;;;;;;;;;23.30;48.40;;;;;;220819;1276;24133;-49
2024/01/02 13:30:38;;;;;;;;;;;23.60;47.80;;;;;;220859;1270;23495;-50
2024/01/02 13:35:45;;;;;;;;;;;23.60;47.80;;;;;;220276;1281;22540;-52
2024/01/02 13:41:00;;;;;;;;;;;23.80;47.50;;;;;;220313;1270;22634;-51
2024/01/02 13:46:10;;;;;;;;;;;23.80;48.00;;;;;;220976;1273;22686;-50
2024/01/02 13:51:14;;;;;;;;;;;23.70;47.80;;;;;;221018;1272;22600;-52
2024/01/02 13:56:19;;;;;;;;;;;23.70;48.30;;;;;;222232;1267;22975;-50
2024/01/02 14:01:39;;;;;;;;;;;23.50;48.50;;;;;;221888;1264;23638;-52
2024/01/02 14:06:44;;;;;;;;;;;23.40;48.30;;;;;;221852;1268;23258;-51
2024/01/02 14:11:59;;;;;;;;;;;23.50;48.30;;;;;;222094;1263;24357;-50
2024/01/02 14:17:07;;;;;;;;;;;23.50;48.30;;;;;;221907;1267;22548;-50
2024/01/02 14:22:37;;;;;;;;;;;23.40;47.90;;;;;;222114;1264;23191;-48
2024/01/02 14:28:00;;;;;;;;;;;23.30;48.70;;;;;;220549;1273;22519;-50
2024/01/02 14:33:23;;;;;;;;;;;23.10;48.90;;;;;;220582;1273;24264;-50
2024/01/02 14:38:46;;;;;;;;;;;23.10;49.00;;;;;;220626;1273;24342;-50
2024/01/02 14:43:56;;;;;;;;;;;23.00;49.10;;;;;;220718;1269;22632;-53
2024/01/02 14:49:23;;;;;;;;;;;23.00;49.10;;;;;;220564;1276;23783;-51
2024/01/02 14:54:42;;;;;;;;;;;23.20;48.90;;;;;;220648;1277;23877;-50
2024/01/02 14:59:53;;;;;;;;;;;23.50;48.30;;;;;;220729;1277;25311;-50
2024/01/02 15:04:58;;;;;;;;;;;23.70;47.80;;;;;;222348;1266;24340;-50
2024/01/02 15:10:14;;;;;;;;;;;23.80;47.50;;;;;;222970;1260;25204;-50
2024/01/02 15:15:32;;;;;;;;;;;23.90;47.40;;;;;;229977;1264;23246;-48
2024/01/02 15:20:45;;;;;;;;;;;24.00;47.20;;;;;;227575;1267;23787;-52
2024/01/02 15:26:08;;;;;;;;;;;23.90;47.00;;;;;;224352;1267;24348;-53
2024/01/02 15:31:14;;;;;;;;;;;23.80;47.20;;;;;;224287;1263;25460;-51
2024/01/02 15:36:18;;;;;;;;;;;23.70;47.50;;;;;;221278;1275;22616;-49
2024/01/02 15:41:23;;;;;;;;;;;23.60;47.90;;;;;;221065;1266;22539;-50
2024/01/02 15:46:40;;;;;;;;;;;23.60;47.90;;;;;;220972;1273;22557;-49
2024/01/02 15:51:49;;;;;;;;;;;23.50;47.70;;;;;;221487;1263;23029;-52
2024/01/02 15:56:55;;;;;;;;;;;23.50;47.80;;;;;;222137;1263;22522;-51
2024/01/02 16:02:18;;;;;;;;;;;23.30;48.30;;;;;;222187;1262;24391;-49
2024/01/02 16:07:33;;;;;;;;;;;23.20;48.00;;;;;;222259;1268;24182;-50
2024/01/02 16:12:48;;;;;;;;;;;23.20;48.30;;;;;;221147;1261;24212;-51
2024/01/02 16:17:52;;;;;;;;;;;23.10;48.80;;;;;;220946;1275;24206;-52
2024/01/02 16:23:00;;;;;;;;;;;23.20;49.80;;;;;;221027;1269;22528;-48
2024/01/02 16:28:24;;;;;;;;;;;23.30;51.10;;;;;;221113;1268;23567;-48
2024/01/02 16:33:35;;;;;;;;;;;23.60;49.70;;;;;;222794;1268;25133;-52
2024/01/02 16:38:40;;;;;;;;;;;23.90;49.30;;;;;;222404;1258;22499;-52
2024/01/02 16:43:46;;;;;;;;;;;24.00;48.80;;;;;;221605;1263;22606;-50
2024/01/02 16:48:51;;;;;;;;;;;24.00;49.00;;;;;;222099;1262;22792;-51
2024/01/02 16:54:00;;;;;;;;;;;23.90;48.80;;;;;;222606;1264;24196;-50
2024/01/02 16:59:05;;;;;;;;;;;23.80;49.00;;;;;;222517;1268;22528;-58
2024/01/02 17:04:09;;;;;;;;;;;23.70;48.90;;;;;;222392;1268;24169;-59
2024/01/02 17:09:14;;;;;;;;;;;23.60;49.00;;;;;;222304;1262;24198;-50
2024/01/02 17:14:18;;;;;;;;;;;23.70;48.90;;;;;;223073;1262;22507;-50
2024/01/02 17:19:23;;;;;;;;;;;23.70;49.00;;;;;;221539;1264;24272;-53
2024/01/02 17:24:27;;;;;;;;;;;23.60;48.80;;;;;;221338;1269;22526;-48
2024/01/02 17:29:32;;;;;;;;;;;23.50;48.50;;;;;;220931;1274;25695;-50
2024/01/02 17:34:36;;;;;;;;;;;23.40;48.60;;;;;;221728;1268;24039;-52
2024/01/02 17:39:41;;;;;;;;;;;23.40;48.80;;;;;;222553;1267;22522;-54
2024/01/02 17:44:45;;;;;;;;;;;23.30;49.30;;;;;;222214;1259;26635;-55
2024/01/02 17:49:50;;;;;;;;;;;23.40;49.50;;;;;;224318;1263;24199;-54
2024/01/02 17:54:55;;;;;;;;;;;23.30;49.50;;;;;;222159;1266;23911;-52
2024/01/02 18:00:00;;;;;;;;;;;23.30;49.80;;;;;;221935;1268;23290;-53
2024/01/02 18:05:35;;;;;;;;;;;23.10;49.90;;;;;;222069;1268;24251;-53
2024/01/02 18:11:00;;;;;;;;;;;23.20;50.20;;;;;;222141;1268;24207;-53
2024/01/02 18:16:23;;;;;;;;;;;23.60;49.90;;;;;;222171;1263;24327;-52
2024/01/02 18:21:35;;;;;;;;;;;23.80;49.50;;;;;;222086;1264;22773;-58
2024/01/02 18:27:01;;;;;;;;;;;23.90;49.70;;;;;;222065;1263;249733;-55
2024/01/02 18:32:10;;;;;;;;;;;23.90;49.00;;;;;;221095;1259;22565;-55
2024/01/02 18:37:26;;;;;;;;;;;23.90;48.50;;;;;;221119;1270;24219;-58
2024/01/02 18:42:36;;;;;;;;;;;23.90;48.90;;;;;;220963;1266;24260;-59
2024/01/02 18:47:46;;;;;;;;;;;23.90;49.10;;;;;;223111;1269;24209;-58
2024/01/02 18:52:55;;;;;;;;;;;23.90;49.40;;;;;;221988;1263;26619;-59
2024/01/02 18:57:59;;;;;;;;;;;23.80;49.70;;;;;;223844;1263;22595;-60
2024/01/02 19:03:05;;;;;;;;;;;23.80;49.20;;;;;;222901;1268;22523;-61
2024/01/02 19:08:12;;;;;;;;;;;23.70;49.40;;;;;;221589;1267;24218;-60
2024/01/02 19:13:18;;;;;;;;;;;23.60;49.40;;;;;;222427;1267;22525;-62
2024/01/02 19:18:23;;;;;;;;;;;23.50;50.30;;;;;;222589;1260;22560;-60
2024/01/02 19:23:28;;;;;;;;;;;23.40;49.50;;;;;;223003;1260;22501;-56
2024/01/02 19:28:34;;;;;;;;;;;23.30;49.80;;;;;;222025;1263;22553;-57
2024/01/02 19:33:38;;;;;;;;;;;23.40;50.70;;;;;;222545;1263;22507;-59
2024/01/02 19:38:44;;;;;;;;;;;23.40;51.60;;;;;;222461;1249;22497;-58
2024/01/02 19:43:48;;;;;;;;;;;23.30;51.70;;;;;;222505;1260;25354;-58
2024/01/02 19:48:58;;;;;;;;;;;23.20;51.70;;;;;;222944;1257;23943;-58
2024/01/02 19:54:03;;;;;;;;;;;23.10;51.60;;;;;;223138;1266;25246;-58
2024/01/02 19:59:08;;;;;;;;;;;23.00;51.60;;;;;;222956;1263;24244;-57
2024/01/02 20:04:16;;;;;;;;;;;23.00;51.50;;;;;;224183;1267;23270;-57
2024/01/02 20:09:21;;;;;;;;;;;23.00;51.40;;;;;;223330;1260;22499;-59
2024/01/02 20:14:43;;;;;;;;;;;22.90;51.30;;;;;;222470;1254;22613;-51
2024/01/02 20:19:47;;;;;;;;;;;22.90;52.00;;;;;;222455;1263;25345;-53
2024/01/02 20:24:52;;;;;;;;;;;23.00;51.40;;;;;;222251;1267;22652;-51
2024/01/02 20:29:57;;;;;;;;;;;23.10;51.30;;;;;;222652;1253;25494;-53
2024/01/02 20:35:05;;;;;;;;;;;23.20;51.40;;;;;;222060;1268;22917;-52
2024/01/02 20:40:25;;;;;;;;;;;23.30;51.20;;;;;;222099;1262;24189;-53
2024/01/02 20:45:29;;;;;;;;;;;23.30;50.90;;;;;;222593;1269;22580;-54
2024/01/02 20:50:34;;;;;;;;;;;23.40;50.70;;;;;;222125;1262;22525;-51
2024/01/02 20:55:40;;;;;;;;;;;23.30;51.10;;;;;;222484;1262;22687;-48
2024/01/02 21:00:44;;;;;;;;;;;23.20;51.20;;;;;;222232;1262;22925;-47
2024/01/02 21:05:58;;;;;;;;;;;23.30;51.70;;;;;;222154;1266;22529;-51
2024/01/02 21:11:03;;;;;;;;;;;23.30;60.70;;;;;;222446;1262;25211;-46
2024/01/02 21:16:10;;;;;;;;;;;23.50;55.80;;;;;;222072;1262;24273;-48
2024/01/02 21:21:33;;;;;;;;;;;23.40;54.50;;;;;;220907;1266;22511;-49
2024/01/02 21:26:37;;;;;;;;;;;23.10;54.50;;;;;;221236;1266;22759;-50
2024/01/02 21:31:45;;;;;;;;;;;23.20;52.90;;;;;;221306;1269;22498;-48
2024/01/02 21:36:50;;;;;;;;;;;23.10;52.70;;;;;;221219;1269;24210;-50
2024/01/02 21:41:56;;;;;;;;;;;23.10;52.80;;;;;;222399;1262;22513;-48
2024/01/02 21:47:01;;;;;;;;;;;23.10;53.10;;;;;;222302;1259;23316;-48
2024/01/02 21:52:53;;;;;;;;;;;23.00;54.60;;;;;;221857;1259;24217;-51
2024/01/02 21:58:05;;;;;;;;;;;23.00;54.70;;;;;;220956;1269;22552;-50
2024/01/02 22:03:26;;;;;;;;;;;23.10;56.30;;;;;;220696;1271;22660;-48
2024/01/02 22:08:31;;;;;;;;;;;23.10;55.60;;;;;;220519;1270;23355;-50
2024/01/02 22:13:48;;;;;;;;;;;23.10;56.60;;;;;;220642;1272;22572;-50
2024/01/02 22:19:23;;;;;;;;;;;23.10;56.50;;;;;;220713;1270;22524;-51
2024/01/02 22:24:30;;;;;;;;;;;23.10;56.00;;;;;;220924;1269;24325;-49
2024/01/02 22:29:36;;;;;;;;;;;23.00;55.70;;;;;;220809;1273;22738;-50
2024/01/02 22:34:43;;;;;;;;;;;23.00;55.70;;;;;;221607;1266;22601;-46
2024/01/02 22:39:55;;;;;;;;;;;22.90;55.60;;;;;;222091;1263;22523;-46
2024/01/02 22:45:00;;;;;;;;;;;22.90;55.10;;;;;;222166;1264;24348;-47
2024/01/02 22:50:05;;;;;;;;;;;23.00;55.50;;;;;;222235;1264;23651;-49
2024/01/02 22:55:10;;;;;;;;;;;23.00;55.10;;;;;;221945;1265;24519;-50
2024/01/02 23:00:15;;;;;;;;;;;23.10;54.90;;;;;;222105;1267;22501;-49
2024/01/02 23:05:21;;;;;;;;;;;23.10;54.80;;;;;;222005;1260;23315;-48
2024/01/02 23:10:26;;;;;;;;;;;23.20;54.70;;;;;;222301;1266;22971;-51
2024/01/02 23:15:50;;;;;;;;;;;23.20;54.70;;;;;;222194;1264;23215;-53
2024/01/02 23:20:54;;;;;;;;;;;23.30;55.20;;;;;;222039;1265;22513;-54
2024/01/02 23:26:00;;;;;;;;;;;23.40;54.90;;;;;;221721;1264;22522;-55
2024/01/02 23:31:04;;;;;;;;;;;23.40;54.80;;;;;;222148;1270;22509;-56
2024/01/02 23:36:10;;;;;;;;;;;23.30;54.90;;;;;;221851;1261;24302;-55
2024/01/02 23:41:14;;;;;;;;;;;23.20;54.60;;;;;;222000;1256;22550;-55
2024/01/02 23:46:18;;;;;;;;;;;23.20;54.80;;;;;;222263;1267;25382;-54
2024/01/02 23:51:23;;;;;;;;;;;23.20;54.00;;;;;;222010;1268;22862;-55
2024/01/02 23:56:36;;;;;;;;;;;23.20;53.80;;;;;;221856;1267;22504;-54
